TFM - Tactical Decision Aid
ID: Runway Winds: CIG/VIS Threshold:

KTYS - Knoxville/Tyson Arpt, TN, US

Updated at: 2321 UTC 01 Feb 2023
Latest TAF at: 2320 UTC 01 Feb 2023

TAF Board

Time2253Z 02/00Z 02/01Z 02/02Z 02/03Z 02/04Z 02/05Z 02/06Z 02/07Z 02/08Z 02/09Z 02/10Z 02/11Z 02/12Z>>
Type OBS PRVL PRVL PRVL PRVL PRVL PRVL PRVL PRVL PRVL PRVL PRVL PRVL PRVL
VIS 10 6 6 6 6 6 6 5 5 5 5 3 3 3
CIG 12 15 15 15 15 15 15 7 7 7 7 4 4 4
Cover OVC OVC OVC OVC OVC OVC OVC OVC OVC OVC OVC OVC OVC OVC
FltCat MVFR MVFR MVFR MVFR MVFR MVFR MVFR IFR IFR IFR IFR LIFR LIFR LIFR
WX -- BR BR BR BR BR BR -RA -RA -RA -RA -RA -RA -RA
WDir 360 VRB VRB VRB VRB VRB VRB VRB VRB VRB VRB VRB VRB VRB
WSpd 5 4 4 4 4 4 4 4 4 4 4 3 3 3
WGst -- -- -- -- -- -- -- -- -- -- -- -- -- --
WSHgt -- -- -- -- -- -- -- -- -- -- -- -- -- --
WSDir -- -- -- -- -- -- -- -- -- -- -- -- -- --
WSSpd -- -- -- -- -- -- -- -- -- -- -- -- -- --

TDA Impact Legend

  None Marginal Slight Moderate High
Visibility (sm) >5 2.9≤X≤5 0.9≤X<2.9 <0.9
Ceiling (100 ft) >30 9.9≤X≤30 4.9≤X<9.9 <4.9
Wind Speed (kt) <15 15≤X<25 25≤X<30 ≥30
Wind Gust (kt) <15 15≤X<25 25≤X<35 ≥35
Weather No Wx Reported VCTS -TS,-FZRA TS,FZRA +TS,+FZRA
TAF
KTYS 012320Z 0200/0224 VRB04KT 6SM BR OVC015
  FM020600 VRB04KT 5SM -RA OVC007
  FM021000 VRB03KT 3SM -RA OVC004
  FM022000 34005KT 3SM RA OVC007


METAR
KTYS 012253Z 36005KT 10SM BKN012 OVC060 05/02 A3024 RMK AO2 SLP242 T00500022
KTYS 012153Z 07005KT 10SM OVC014 05/02 A3024 RMK AO2 SLP245 T00500022
KTYS 012053Z 02004KT 10SM OVC013 04/02 A3024 RMK AO2 SLP244 T00440017 55010
KTYS 011953Z 35007KT 10SM OVC013 04/02 A3024 RMK AO2 SLP243 T00440017

Radar Display
Forecast Discussion